sensor_id;sensor_type;location;lat;lon;timestamp;pressure;altitude;pressure_sealevel;temperature;humidity
38466;BME280;24244;51.950;5.902;2023-09-12T00:02:15;101192.53;;;22.07;85.40
38466;BME280;24244;51.950;5.902;2023-09-12T00:04:42;101177.59;;;22.05;85.48
38466;BME280;24244;51.950;5.902;2023-09-12T00:07:09;101167.81;;;22.04;85.72
38466;BME280;24244;51.950;5.902;2023-09-12T00:09:36;101168.09;;;22.02;85.62
38466;BME280;24244;51.950;5.902;2023-09-12T00:12:03;101164.28;;;22.03;85.70
38466;BME280;24244;51.950;5.902;2023-09-12T00:14:30;101168.91;;;22.03;85.85
38466;BME280;24244;51.950;5.902;2023-09-12T00:16:58;101167.81;;;22.04;85.70
38466;BME280;24244;51.950;5.902;2023-09-12T00:19:25;101168.09;;;22.02;85.66
38466;BME280;24244;51.950;5.902;2023-09-12T00:21:52;101157.28;;;22.02;85.75
38466;BME280;24244;51.950;5.902;2023-09-12T00:24:20;101165.88;;;21.99;85.59
38466;BME280;24244;51.950;5.902;2023-09-12T00:26:46;101176.34;;;21.96;85.47
38466;BME280;24244;51.950;5.902;2023-09-12T00:29:13;101184.66;;;21.89;85.86
38466;BME280;24244;51.950;5.902;2023-09-12T00:31:40;101203.88;;;21.87;85.98
38466;BME280;24244;51.950;5.902;2023-09-12T00:34:08;101196.00;;;21.86;86.11
38466;BME280;24244;51.950;5.902;2023-09-12T00:36:35;101200.84;;;21.84;85.96
38466;BME280;24244;51.950;5.902;2023-09-12T00:39:04;101196.72;;;21.81;85.94
38466;BME280;24244;51.950;5.902;2023-09-12T00:41:31;101207.25;;;21.78;86.19
38466;BME280;24244;51.950;5.902;2023-09-12T00:43:58;101232.09;;;21.75;86.14
38466;BME280;24244;51.950;5.902;2023-09-12T00:46:26;101241.31;;;21.74;86.30
38466;BME280;24244;51.950;5.902;2023-09-12T00:48:55;101242.09;;;21.74;86.62
38466;BME280;24244;51.950;5.902;2023-09-12T00:51:25;101238.59;;;21.74;86.44
38466;BME280;24244;51.950;5.902;2023-09-12T00:53:52;101233.19;;;21.74;86.52
38466;BME280;24244;51.950;5.902;2023-09-12T00:56:20;101222.38;;;21.74;86.42
38466;BME280;24244;51.950;5.902;2023-09-12T00:58:47;101213.44;;;21.73;87.05
38466;BME280;24244;51.950;5.902;2023-09-12T01:01:17;101202.59;;;21.73;86.67
38466;BME280;24244;51.950;5.902;2023-09-12T01:03:44;101197.19;;;21.73;86.66
38466;BME280;24244;51.950;5.902;2023-09-12T01:06:12;101181.19;;;21.72;86.74
38466;BME280;24244;51.950;5.902;2023-09-12T01:08:42;101178.72;;;21.70;86.69
38466;BME280;24244;51.950;5.902;2023-09-12T01:11:09;101180.03;;;21.68;86.52
38466;BME280;24244;51.950;5.902;2023-09-12T01:13:36;101181.63;;;21.64;86.80
38466;BME280;24244;51.950;5.902;2023-09-12T01:16:03;101179.66;;;21.59;86.84
38466;BME280;24244;51.950;5.902;2023-09-12T01:18:30;101174.75;;;21.56;87.29
38466;BME280;24244;51.950;5.902;2023-09-12T01:21:23;101176.03;;;21.54;86.89
38466;BME280;24244;51.950;5.902;2023-09-12T01:23:57;101169.28;;;21.51;86.93
38466;BME280;24244;51.950;5.902;2023-09-12T01:26:40;101167.88;;;21.48;86.96
38466;BME280;24244;51.950;5.902;2023-09-12T01:29:12;101168.38;;;21.45;86.99
38466;BME280;24244;51.950;5.902;2023-09-12T01:31:42;101159.94;;;21.42;86.51
38466;BME280;24244;51.950;5.902;2023-09-12T01:34:10;101157.72;;;21.39;87.03
38466;BME280;24244;51.950;5.902;2023-09-12T01:36:37;101147.97;;;21.38;87.16
38466;BME280;24244;51.950;5.902;2023-09-12T01:39:05;101150.94;;;21.36;86.90
38466;BME280;24244;51.950;5.902;2023-09-12T01:41:35;101154.13;;;21.33;87.11
38466;BME280;24244;51.950;5.902;2023-09-12T01:44:06;101158.97;;;21.31;87.06
38466;BME280;24244;51.950;5.902;2023-09-12T01:46:37;101160.03;;;21.30;86.90
38466;BME280;24244;51.950;5.902;2023-09-12T01:49:05;101164.88;;;21.28;87.08
38466;BME280;24244;51.950;5.902;2023-09-12T01:51:33;101159.94;;;21.25;86.88
38466;BME280;24244;51.950;5.902;2023-09-12T01:54:01;101160.22;;;21.24;87.02
38466;BME280;24244;51.950;5.902;2023-09-12T01:56:30;101159.88;;;21.20;87.15
38466;BME280;24244;51.950;5.902;2023-09-12T01:58:57;101165.78;;;21.17;87.26
38466;BME280;24244;51.950;5.902;2023-09-12T02:01:24;101166.84;;;21.16;87.25
38466;BME280;24244;51.950;5.902;2023-09-12T02:03:55;101162.47;;;21.15;87.30
38466;BME280;24244;51.950;5.902;2023-09-12T02:06:22;101160.81;;;21.14;87.20
38466;BME280;24244;51.950;5.902;2023-09-12T02:08:49;101159.19;;;21.13;87.05
38466;BME280;24244;51.950;5.902;2023-09-12T02:11:16;101155.91;;;21.11;87.11
38466;BME280;24244;51.950;5.902;2023-09-12T02:13:42;101155.59;;;21.07;87.35
38466;BME280;24244;51.950;5.902;2023-09-12T02:16:09;101155.81;;;21.06;87.19
38466;BME280;24244;51.950;5.902;2023-09-12T02:18:36;101152.28;;;21.05;87.32
38466;BME280;24244;51.950;5.902;2023-09-12T02:21:06;101153.13;;;21.06;87.33
38466;BME280;24244;51.950;5.902;2023-09-12T02:23:33;101153.34;;;21.04;87.22
38466;BME280;24244;51.950;5.902;2023-09-12T02:26:00;101142.81;;;21.03;87.26
38466;BME280;24244;51.950;5.902;2023-09-12T02:28:27;101144.69;;;21.02;87.25
38466;BME280;24244;51.950;5.902;2023-09-12T02:30:54;101147.88;;;20.99;87.38
38466;BME280;24244;51.950;5.902;2023-09-12T02:33:21;101153.53;;;20.98;87.47
38466;BME280;24244;51.950;5.902;2023-09-12T02:35:48;101160.25;;;20.95;87.52
38466;BME280;24244;51.950;5.902;2023-09-12T02:38:17;101163.78;;;20.96;87.36
38466;BME280;24244;51.950;5.902;2023-09-12T02:40:44;101162.13;;;20.95;87.62
38466;BME280;24244;51.950;5.902;2023-09-12T02:43:11;101158.63;;;20.94;87.67
38466;BME280;24244;51.950;5.902;2023-09-12T02:45:37;101169.41;;;20.94;87.46
38466;BME280;24244;51.950;5.902;2023-09-12T02:48:04;101166.13;;;20.92;87.83
38466;BME280;24244;51.950;5.902;2023-09-12T02:50:32;101169.06;;;20.91;87.65
38466;BME280;24244;51.950;5.902;2023-09-12T02:52:59;101175.53;;;20.90;87.76
38466;BME280;24244;51.950;5.902;2023-09-12T02:55:27;101176.88;;;20.87;87.81
38466;BME280;24244;51.950;5.902;2023-09-12T02:57:54;101186.28;;;20.85;87.93
38466;BME280;24244;51.950;5.902;2023-09-12T03:00:21;101184.63;;;20.84;87.95
38466;BME280;24244;51.950;5.902;2023-09-12T03:02:50;101190.28;;;20.82;87.82
38466;BME280;24244;51.950;5.902;2023-09-12T03:05:17;101188.91;;;20.80;87.86
38466;BME280;24244;51.950;5.902;2023-09-12T03:07:44;101193.47;;;20.79;87.88
38466;BME280;24244;51.950;5.902;2023-09-12T03:10:11;101189.38;;;20.77;87.84
38466;BME280;24244;51.950;5.902;2023-09-12T03:12:39;101178.00;;;20.75;87.98
38466;BME280;24244;51.950;5.902;2023-09-12T03:15:07;101177.41;;;20.73;87.85
38466;BME280;24244;51.950;5.902;2023-09-12T03:17:36;101177.88;;;20.69;87.81
38466;BME280;24244;51.950;5.902;2023-09-12T03:20:04;101189.19;;;20.66;87.88
38466;BME280;24244;51.950;5.902;2023-09-12T03:22:35;101182.38;;;20.64;88.02
38466;BME280;24244;51.950;5.902;2023-09-12T03:25:05;101181.56;;;20.63;87.92
38466;BME280;24244;51.950;5.902;2023-09-12T03:27:32;101179.91;;;20.62;87.86
38466;BME280;24244;51.950;5.902;2023-09-12T03:30:01;101176.91;;;20.59;87.83
38466;BME280;24244;51.950;5.902;2023-09-12T03:32:28;101172.56;;;20.58;87.96
38466;BME280;24244;51.950;5.902;2023-09-12T03:34:54;101174.66;;;20.56;87.95
38466;BME280;24244;51.950;5.902;2023-09-12T03:37:21;101178.66;;;20.53;87.94
38466;BME280;24244;51.950;5.902;2023-09-12T03:39:48;101176.78;;;20.54;88.17
38466;BME280;24244;51.950;5.902;2023-09-12T03:42:15;101172.19;;;20.54;88.22
38466;BME280;24244;51.950;5.902;2023-09-12T03:44:43;101162.22;;;20.55;88.13
38466;BME280;24244;51.950;5.902;2023-09-12T03:47:11;101164.69;;;20.56;87.96
38466;BME280;24244;51.950;5.902;2023-09-12T03:49:38;101155.53;;;20.57;88.10
38466;BME280;24244;51.950;5.902;2023-09-12T03:52:05;101152.00;;;20.57;87.96
38466;BME280;24244;51.950;5.902;2023-09-12T03:54:32;101150.59;;;20.54;87.73
38466;BME280;24244;51.950;5.902;2023-09-12T03:56:59;101151.09;;;20.51;88.29
38466;BME280;24244;51.950;5.902;2023-09-12T03:59:26;101151.09;;;20.51;88.11
38466;BME280;24244;51.950;5.902;2023-09-12T04:01:53;101138.06;;;20.48;88.49
38466;BME280;24244;51.950;5.902;2023-09-12T04:04:21;101146.16;;;20.48;88.23
38466;BME280;24244;51.950;5.902;2023-09-12T04:06:48;101136.69;;;20.46;88.49
38466;BME280;24244;51.950;5.902;2023-09-12T04:09:15;101140.44;;;20.45;88.25
38466;BME280;24244;51.950;5.902;2023-09-12T04:11:42;101140.69;;;20.43;88.43
38466;BME280;24244;51.950;5.902;2023-09-12T04:14:14;101132.00;;;20.41;88.38
38466;BME280;24244;51.950;5.902;2023-09-12T04:16:41;101128.47;;;20.41;88.40
38466;BME280;24244;51.950;5.902;2023-09-12T04:19:08;101129.06;;;20.43;88.44
38466;BME280;24244;51.950;5.902;2023-09-12T04:21:36;101119.06;;;20.43;88.31
38466;BME280;24244;51.950;5.902;2023-09-12T04:24:04;101124.47;;;20.43;88.45
38466;BME280;24244;51.950;5.902;2023-09-12T04:26:32;101119.06;;;20.43;88.37
38466;BME280;24244;51.950;5.902;2023-09-12T04:28:59;101130.94;;;20.42;88.52
38466;BME280;24244;51.950;5.902;2023-09-12T04:31:26;101131.75;;;20.43;88.43
38466;BME280;24244;51.950;5.902;2023-09-12T04:33:54;101126.34;;;20.43;88.66
38466;BME280;24244;51.950;5.902;2023-09-12T04:36:21;101124.47;;;20.43;88.68
38466;BME280;24244;51.950;5.902;2023-09-12T04:38:49;101121.78;;;20.43;88.78
38466;BME280;24244;51.950;5.902;2023-09-12T04:41:16;101121.53;;;20.45;88.59
38466;BME280;24244;51.950;5.902;2023-09-12T04:43:43;101123.97;;;20.46;88.76
38466;BME280;24244;51.950;5.902;2023-09-12T04:46:11;101125.63;;;20.47;88.96
38466;BME280;24244;51.950;5.902;2023-09-12T04:48:39;101134.06;;;20.51;88.83
38466;BME280;24244;51.950;5.902;2023-09-12T04:51:06;101140.63;;;20.55;88.94
38466;BME280;24244;51.950;5.902;2023-09-12T04:53:33;101146.38;;;20.58;88.62
38466;BME280;24244;51.950;5.902;2023-09-12T04:56:04;101143.66;;;20.58;88.52
38466;BME280;24244;51.950;5.902;2023-09-12T04:58:33;101140.13;;;20.58;88.62
38466;BME280;24244;51.950;5.902;2023-09-12T05:00:59;101138.25;;;20.58;89.00
38466;BME280;24244;51.950;5.902;2023-09-12T05:03:26;101139.63;;;20.61;89.07
38466;BME280;24244;51.950;5.902;2023-09-12T05:05:53;101142.09;;;20.62;88.76
38466;BME280;24244;51.950;5.902;2023-09-12T05:08:20;101140.22;;;20.63;89.06
38466;BME280;24244;51.950;5.902;2023-09-12T05:10:47;101141.03;;;20.63;89.10
38466;BME280;24244;51.950;5.902;2023-09-12T05:13:17;101142.44;;;20.66;89.22
38466;BME280;24244;51.950;5.902;2023-09-12T05:15:44;101143.28;;;20.66;89.23
38466;BME280;24244;51.950;5.902;2023-09-12T05:18:11;101153.34;;;20.71;89.40
38466;BME280;24244;51.950;5.902;2023-09-12T05:20:38;101150.63;;;20.71;89.16
38466;BME280;24244;51.950;5.902;2023-09-12T05:23:05;101138.53;;;20.74;89.31
38466;BME280;24244;51.950;5.902;2023-09-12T05:25:32;101143.94;;;20.74;89.38
38466;BME280;24244;51.950;5.902;2023-09-12T05:27:59;101164.50;;;20.75;89.64
38466;BME280;24244;51.950;5.902;2023-09-12T05:30:28;101170.44;;;20.77;89.39
38466;BME280;24244;51.950;5.902;2023-09-12T05:32:55;101169.41;;;20.78;89.50
38466;BME280;24244;51.950;5.902;2023-09-12T05:35:21;101161.06;;;20.79;89.64
38466;BME280;24244;51.950;5.902;2023-09-12T05:37:49;101163.50;;;20.81;89.75
38466;BME280;24244;51.950;5.902;2023-09-12T05:40:16;101176.75;;;20.82;89.40
38466;BME280;24244;51.950;5.902;2023-09-12T05:42:43;101178.66;;;20.82;89.57
38466;BME280;24244;51.950;5.902;2023-09-12T05:45:11;101181.09;;;20.83;89.90
38466;BME280;24244;51.950;5.902;2023-09-12T05:47:40;101176.53;;;20.84;89.88
38466;BME280;24244;51.950;5.902;2023-09-12T05:50:07;101165.16;;;20.82;89.66
38466;BME280;24244;51.950;5.902;2023-09-12T05:52:34;101167.88;;;20.82;89.86
38466;BME280;24244;51.950;5.902;2023-09-12T05:55:01;101155.13;;;20.82;89.90
38466;BME280;24244;51.950;5.902;2023-09-12T05:57:28;101158.44;;;20.84;89.85
38466;BME280;24244;51.950;5.902;2023-09-12T05:59:55;101152.19;;;20.84;89.96
38466;BME280;24244;51.950;5.902;2023-09-12T06:02:23;101152.78;;;20.86;89.99
38466;BME280;24244;51.950;5.902;2023-09-12T06:04:51;101160.88;;;20.86;89.93
38466;BME280;24244;51.950;5.902;2023-09-12T06:07:18;101173.34;;;20.87;90.21
38466;BME280;24244;51.950;5.902;2023-09-12T06:09:46;101176.63;;;20.89;89.94
38466;BME280;24244;51.950;5.902;2023-09-12T06:12:13;101188.81;;;20.91;90.21
38466;BME280;24244;51.950;5.902;2023-09-12T06:14:40;101194.22;;;20.91;90.14
38466;BME280;24244;51.950;5.902;2023-09-12T06:17:07;101192.34;;;20.92;90.07
38466;BME280;24244;51.950;5.902;2023-09-12T06:19:34;101190.94;;;20.89;90.00
38466;BME280;24244;51.950;5.902;2023-09-12T06:22:03;101196.34;;;20.89;90.17
38466;BME280;24244;51.950;5.902;2023-09-12T06:24:30;101200.13;;;20.88;90.23
38466;BME280;24244;51.950;5.902;2023-09-12T06:26:56;101193.63;;;20.89;90.39
38466;BME280;24244;51.950;5.902;2023-09-12T06:29:23;101201.75;;;20.89;90.28
38466;BME280;24244;51.950;5.902;2023-09-12T06:31:50;101203.97;;;20.92;90.25
38466;BME280;24244;51.950;5.902;2023-09-12T06:34:17;101191.28;;;20.93;90.45
38466;BME280;24244;51.950;5.902;2023-09-12T06:36:44;101196.44;;;20.94;90.42
38466;BME280;24244;51.950;5.902;2023-09-12T06:39:14;101186.47;;;20.95;90.60
38466;BME280;24244;51.950;5.902;2023-09-12T06:41:40;101198.91;;;20.96;90.28
38466;BME280;24244;51.950;5.902;2023-09-12T06:44:07;101198.66;;;20.97;90.29
38466;BME280;24244;51.950;5.902;2023-09-12T06:46:34;101197.00;;;20.96;90.55
38466;BME280;24244;51.950;5.902;2023-09-12T06:49:03;101194.88;;;20.98;90.29
38466;BME280;24244;51.950;5.902;2023-09-12T06:51:30;101191.38;;;20.98;90.60
38466;BME280;24244;51.950;5.902;2023-09-12T06:54:05;101194.66;;;21.00;90.50
38466;BME280;24244;51.950;5.902;2023-09-12T06:56:33;101200.06;;;21.00;90.52
38466;BME280;24244;51.950;5.902;2023-09-12T06:59:04;101203.56;;;21.00;90.38
38466;BME280;24244;51.950;5.902;2023-09-12T07:01:31;101196.53;;;20.99;90.58
38466;BME280;24244;51.950;5.902;2023-09-12T07:03:58;101201.94;;;20.99;90.72
38466;BME280;24244;51.950;5.902;2023-09-12T07:06:25;101200.06;;;21.00;90.58
38466;BME280;24244;51.950;5.902;2023-09-12T07:08:52;101192.75;;;21.00;90.66
38466;BME280;24244;51.950;5.902;2023-09-12T07:11:19;101200.88;;;21.00;90.72
38466;BME280;24244;51.950;5.902;2023-09-12T07:13:48;101196.88;;;21.03;90.87
38466;BME280;24244;51.950;5.902;2023-09-12T07:16:17;101197.66;;;21.03;90.90
38466;BME280;24244;51.950;5.902;2023-09-12T07:18:44;101193.66;;;21.06;90.98
38466;BME280;24244;51.950;5.902;2023-09-12T07:21:11;101198.84;;;21.07;90.56
38466;BME280;24244;51.950;5.902;2023-09-12T07:23:39;101202.13;;;21.09;90.60
38466;BME280;24244;51.950;5.902;2023-09-12T07:26:11;101207.53;;;21.09;90.67
38466;BME280;24244;51.950;5.902;2023-09-12T07:28:39;101204.56;;;21.11;90.91
38466;BME280;24244;51.950;5.902;2023-09-12T07:31:07;101209.72;;;21.13;90.52
38466;BME280;24244;51.950;5.902;2023-09-12T07:33:35;101209.47;;;21.14;90.71
38466;BME280;24244;51.950;5.902;2023-09-12T07:36:02;101213.00;;;21.15;90.86
38466;BME280;24244;51.950;5.902;2023-09-12T07:38:29;101210.31;;;21.15;90.62
38466;BME280;24244;51.950;5.902;2023-09-12T07:40:57;101205.50;;;21.17;90.76
38466;BME280;24244;51.950;5.902;2023-09-12T07:43:24;101205.50;;;21.17;90.83
38466;BME280;24244;51.950;5.902;2023-09-12T07:45:55;101210.66;;;21.18;90.83
38466;BME280;24244;51.950;5.902;2023-09-12T07:48:23;101206.88;;;21.19;90.93
38466;BME280;24244;51.950;5.902;2023-09-12T07:50:50;101210.66;;;21.18;90.82
38466;BME280;24244;51.950;5.902;2023-09-12T07:53:18;101211.25;;;21.20;90.70
38466;BME280;24244;51.950;5.902;2023-09-12T07:55:45;101205.81;;;21.20;90.86
38466;BME280;24244;51.950;5.902;2023-09-12T07:58:13;101197.25;;;21.23;90.98
38466;BME280;24244;51.950;5.902;2023-09-12T08:00:40;101191.81;;;21.23;91.10
38466;BME280;24244;51.950;5.902;2023-09-12T08:03:08;101186.16;;;21.25;91.14
38466;BME280;24244;51.950;5.902;2023-09-12T08:05:36;101184.03;;;21.27;91.20
38466;BME280;24244;51.950;5.902;2023-09-12T08:08:05;101189.19;;;21.28;90.90
38466;BME280;24244;51.950;5.902;2023-09-12T08:10:32;101189.78;;;21.30;91.00
38466;BME280;24244;51.950;5.902;2023-09-12T08:12:58;101192.50;;;21.30;90.83
38466;BME280;24244;51.950;5.902;2023-09-12T08:15:25;101187.06;;;21.30;90.86
38466;BME280;24244;51.950;5.902;2023-09-12T08:17:54;101190.59;;;21.31;90.81
38466;BME280;24244;51.950;5.902;2023-09-12T08:20:21;101196.56;;;21.33;91.08
38466;BME280;24244;51.950;5.902;2023-09-12T08:22:50;101198.78;;;21.36;91.07
38466;BME280;24244;51.950;5.902;2023-09-12T08:25:17;101191.50;;;21.36;91.01
38466;BME280;24244;51.950;5.902;2023-09-12T08:27:44;101195.84;;;21.37;90.92
38466;BME280;24244;51.950;5.902;2023-09-12T08:30:12;101199.38;;;21.38;90.99
38466;BME280;24244;51.950;5.902;2023-09-12T08:32:39;101200.75;;;21.40;90.84
38466;BME280;24244;51.950;5.902;2023-09-12T08:35:11;101206.97;;;21.41;91.04
38466;BME280;24244;51.950;5.902;2023-09-12T08:37:39;101212.13;;;21.42;90.91
38466;BME280;24244;51.950;5.902;2023-09-12T08:40:09;101221.66;;;21.45;90.90
38466;BME280;24244;51.950;5.902;2023-09-12T08:42:39;101219.50;;;21.47;91.13
38466;BME280;24244;51.950;5.902;2023-09-12T08:45:12;101225.72;;;21.47;91.03
38466;BME280;24244;51.950;5.902;2023-09-12T08:47:41;101222.78;;;21.49;90.84
38466;BME280;24244;51.950;5.902;2023-09-12T08:50:10;101229.59;;;21.52;90.91
38466;BME280;24244;51.950;5.902;2023-09-12T08:52:38;101224.19;;;21.52;90.88
38466;BME280;24244;51.950;5.902;2023-09-12T08:55:19;101231.25;;;21.53;90.79
38466;BME280;24244;51.950;5.902;2023-09-12T08:57:48;101232.63;;;21.55;90.85
38466;BME280;24244;51.950;5.902;2023-09-12T09:00:17;101228.84;;;21.56;90.47
38466;BME280;24244;51.950;5.902;2023-09-12T09:02:44;101235.91;;;21.57;90.67
38466;BME280;24244;51.950;5.902;2023-09-12T09:05:12;101233.78;;;21.59;90.33
38466;BME280;24244;51.950;5.902;2023-09-12T09:07:41;101235.38;;;21.60;90.50
38466;BME280;24244;51.950;5.902;2023-09-12T09:10:13;101232.44;;;21.62;90.35
38466;BME280;24244;51.950;5.902;2023-09-12T09:12:43;101233.03;;;21.64;90.46
38466;BME280;24244;51.950;5.902;2023-09-12T09:15:21;101230.91;;;21.66;90.43
38466;BME280;24244;51.950;5.902;2023-09-12T09:17:49;101227.69;;;21.69;90.11
38466;BME280;24244;51.950;5.902;2023-09-12T09:20:25;101235.31;;;21.72;90.12
38466;BME280;24244;51.950;5.902;2023-09-12T09:22:57;101236.69;;;21.74;90.21
38466;BME280;24244;51.950;5.902;2023-09-12T09:25:24;101240.78;;;21.77;90.16
38466;BME280;24244;51.950;5.902;2023-09-12T09:27:53;101247.38;;;21.81;90.22
38466;BME280;24244;51.950;5.902;2023-09-12T09:30:39;101244.38;;;21.82;90.09
38466;BME280;24244;51.950;5.902;2023-09-12T09:33:06;101260.97;;;21.86;89.82
38466;BME280;24244;51.950;5.902;2023-09-12T09:35:34;101261.78;;;21.86;89.71
38466;BME280;24244;51.950;5.902;2023-09-12T09:38:01;101258.84;;;21.88;89.90
38466;BME280;24244;51.950;5.902;2023-09-12T09:40:31;101256.69;;;21.90;89.67
38466;BME280;24244;51.950;5.902;2023-09-12T09:43:00;101258.91;;;21.93;89.76
38466;BME280;24244;51.950;5.902;2023-09-12T09:45:29;101261.13;;;21.96;89.47
38466;BME280;24244;51.950;5.902;2023-09-12T09:47:57;101259.00;;;21.98;89.54
38466;BME280;24244;51.950;5.902;2023-09-12T09:50:26;101256.88;;;22.00;89.40
38466;BME280;24244;51.950;5.902;2023-09-12T09:52:55;101254.75;;;22.02;89.24
38466;BME280;24244;51.950;5.902;2023-09-12T09:55:23;101254.22;;;22.05;89.11
38466;BME280;24244;51.950;5.902;2023-09-12T09:57:50;101257.50;;;22.07;88.99
38466;BME280;24244;51.950;5.902;2023-09-12T10:00:22;101259.69;;;22.10;88.99
38466;BME280;24244;51.950;5.902;2023-09-12T10:02:51;101258.38;;;22.13;89.07
38466;BME280;24244;51.950;5.902;2023-09-12T10:05:20;101254.84;;;22.12;88.79
38466;BME280;24244;51.950;5.902;2023-09-12T10:07:49;101264.63;;;22.13;88.50
38466;BME280;24244;51.950;5.902;2023-09-12T10:10:19;101259.78;;;22.15;88.59
38466;BME280;24244;51.950;5.902;2023-09-12T10:12:49;101251.16;;;22.18;88.41
38466;BME280;24244;51.950;5.902;2023-09-12T10:15:19;101246.06;;;22.22;88.41
38466;BME280;24244;51.950;5.902;2023-09-12T10:17:55;101243.09;;;22.23;88.11
38466;BME280;24244;51.950;5.902;2023-09-12T10:20:25;101238.25;;;22.25;87.95
38466;BME280;24244;51.950;5.902;2023-09-12T10:23:03;101242.09;;;22.30;87.76
38466;BME280;24244;51.950;5.902;2023-09-12T10:25:35;101243.47;;;22.32;87.67
38466;BME280;24244;51.950;5.902;2023-09-12T10:28:04;101236.72;;;22.35;87.66
38466;BME280;24244;51.950;5.902;2023-09-12T10:30:32;101237.03;;;22.38;87.37
38466;BME280;24244;51.950;5.902;2023-09-12T10:33:02;101236.53;;;22.41;87.40
38466;BME280;24244;51.950;5.902;2023-09-12T10:35:32;101235.78;;;22.46;87.31
38466;BME280;24244;51.950;5.902;2023-09-12T10:38:01;101236.66;;;22.51;87.05
38466;BME280;24244;51.950;5.902;2023-09-12T10:40:32;101234.50;;;22.53;87.04
38466;BME280;24244;51.950;5.902;2023-09-12T10:43:05;101231.06;;;22.58;86.84
38466;BME280;24244;51.950;5.902;2023-09-12T10:45:33;101234.63;;;22.63;86.63
38466;BME280;24244;51.950;5.902;2023-09-12T10:48:01;101221.38;;;22.67;86.48
38466;BME280;24244;51.950;5.902;2023-09-12T10:50:29;101221.44;;;22.72;86.39
38466;BME280;24244;51.950;5.902;2023-09-12T10:53:08;101226.13;;;22.77;86.02
38466;BME280;24244;51.950;5.902;2023-09-12T10:55:35;101228.06;;;22.81;85.85
38466;BME280;24244;51.950;5.902;2023-09-12T10:58:04;101234.38;;;22.87;85.61
38466;BME280;24244;51.950;5.902;2023-09-12T11:00:31;101234.66;;;22.90;85.40
38466;BME280;24244;51.950;5.902;2023-09-12T11:03:10;101235.81;;;22.94;84.94
38466;BME280;24244;51.950;5.902;2023-09-12T11:05:52;101227.38;;;22.96;84.48
38466;BME280;24244;51.950;5.902;2023-09-12T11:08:22;101225.00;;;22.99;84.28
38466;BME280;24244;51.950;5.902;2023-09-12T11:11:20;101231.53;;;23.03;84.03
38466;BME280;24244;51.950;5.902;2023-09-12T11:14:02;101233.16;;;23.04;84.10
38466;BME280;24244;51.950;5.902;2023-09-12T11:16:30;101234.56;;;23.07;84.20
38466;BME280;24244;51.950;5.902;2023-09-12T11:19:14;101225.88;;;23.10;84.22
38466;BME280;24244;51.950;5.902;2023-09-12T11:21:43;101221.34;;;23.16;83.99
38466;BME280;24244;51.950;5.902;2023-09-12T11:24:11;101217.84;;;23.20;83.67
38466;BME280;24244;51.950;5.902;2023-09-12T11:27:00;101211.91;;;23.23;83.26
38466;BME280;24244;51.950;5.902;2023-09-12T11:29:29;101208.69;;;23.26;83.01
38466;BME280;24244;51.950;5.902;2023-09-12T11:31:59;101204.63;;;23.29;82.91
38466;BME280;24244;51.950;5.902;2023-09-12T11:34:28;101204.94;;;23.32;82.43
38466;BME280;24244;51.950;5.902;2023-09-12T11:36:56;101204.41;;;23.35;82.31
38466;BME280;24244;51.950;5.902;2023-09-12T11:39:25;101201.97;;;23.39;82.10
38466;BME280;24244;51.950;5.902;2023-09-12T11:41:53;101207.97;;;23.41;81.99
38466;BME280;24244;51.950;5.902;2023-09-12T11:44:25;101200.41;;;23.43;81.76
38466;BME280;24244;51.950;5.902;2023-09-12T11:46:53;101195.25;;;23.47;81.38
38466;BME280;24244;51.950;5.902;2023-09-12T11:49:21;101204.56;;;23.51;81.47
38466;BME280;24244;51.950;5.902;2023-09-12T11:51:53;101211.91;;;23.55;81.37
38466;BME280;24244;51.950;5.902;2023-09-12T11:54:24;101210.28;;;23.59;81.27
38466;BME280;24244;51.950;5.902;2023-09-12T11:56:53;101207.06;;;23.62;81.12
38466;BME280;24244;51.950;5.902;2023-09-12T11:59:26;101202.22;;;23.64;81.17
38466;BME280;24244;51.950;5.902;2023-09-12T12:01:53;101204.66;;;23.66;80.91
38466;BME280;24244;51.950;5.902;2023-09-12T12:04:21;101199.50;;;23.64;80.90
38466;BME280;24244;51.950;5.902;2023-09-12T12:06:51;101204.91;;;23.64;80.66
38466;BME280;24244;51.950;5.902;2023-09-12T12:09:20;101203.28;;;23.63;80.24
38466;BME280;24244;51.950;5.902;2023-09-12T12:11:47;101201.63;;;23.62;80.18
38466;BME280;24244;51.950;5.902;2023-09-12T12:14:15;101198.09;;;23.62;79.95
38466;BME280;24244;51.950;5.902;2023-09-12T12:16:43;101199.75;;;23.63;80.04
38466;BME280;24244;51.950;5.902;2023-09-12T12:19:11;101198.69;;;23.64;80.05
38466;BME280;24244;51.950;5.902;2023-09-12T12:21:41;101193.00;;;23.65;79.81
38466;BME280;24244;51.950;5.902;2023-09-12T12:24:13;101189.72;;;23.68;79.46
38466;BME280;24244;51.950;5.902;2023-09-12T12:26:40;101191.94;;;23.71;79.25
38466;BME280;24244;51.950;5.902;2023-09-12T12:29:09;101191.94;;;23.76;78.91
38466;BME280;24244;51.950;5.902;2023-09-12T12:31:37;101190.88;;;23.77;78.37
38466;BME280;24244;51.950;5.902;2023-09-12T12:34:05;101188.72;;;23.79;78.74
38466;BME280;24244;51.950;5.902;2023-09-12T12:36:53;101188.19;;;23.83;78.64
38466;BME280;24244;51.950;5.902;2023-09-12T12:39:26;101182.25;;;23.86;78.41
38466;BME280;24244;51.950;5.902;2023-09-12T12:41:53;101183.34;;;23.90;77.89
38466;BME280;24244;51.950;5.902;2023-09-12T12:44:20;101177.38;;;23.93;77.59
38466;BME280;24244;51.950;5.902;2023-09-12T12:46:49;101176.03;;;23.95;76.97
38466;BME280;24244;51.950;5.902;2023-09-12T12:49:16;101174.69;;;23.98;76.69
38466;BME280;24244;51.950;5.902;2023-09-12T12:51:44;101169.56;;;24.01;76.51
38466;BME280;24244;51.950;5.902;2023-09-12T12:54:12;101170.66;;;24.05;76.60
38466;BME280;24244;51.950;5.902;2023-09-12T12:56:40;101174.44;;;24.09;75.85
38466;BME280;24244;51.950;5.902;2023-09-12T12:59:08;101169.31;;;24.13;75.46